Time;durP1;ratioP1;P1;durP2;ratioP2;P2;SDS_P1;SDS_P2;PMS_P1;PMS_P2;Temp;Humidity;BMP_temperature;BMP_pressure;BME280_temperature;BME280_humidity;BME280_pressure;Samples;Min_cycle;Max_cycle;Signal;HPM_P1;HPM_P2
2022/05/07 00:02:24;;;;;;;10.50;3.10;;;;;;;11.06;41.98;99428.91;104840;1271;75826;-25
2022/05/07 00:04:53;;;;;;;6.20;2.80;;;;;;;11.08;42.00;99429.13;104785;1271;74249;-27
2022/05/07 00:07:21;;;;;;;10.20;3.00;;;;;;;11.09;42.14;99431.83;104747;1271;61257;-25
2022/05/07 00:09:51;;;;;;;11.60;2.90;;;;;;;11.11;41.96;99429.73;104800;1271;61015;-25
2022/05/07 00:12:19;;;;;;;5.10;2.30;;;;;;;11.11;42.08;99432.65;104782;1271;75352;-25
2022/05/07 00:14:48;;;;;;;9.40;2.70;;;;;;;11.12;41.74;99433.86;105000;1272;75951;-25
2022/05/07 00:20:05;;;;;;;4.20;2.10;;;;;;;11.17;41.42;99432.27;105125;1273;62098;-25
2022/05/07 00:22:34;;;;;;;12.40;2.90;;;;;;;11.17;41.08;99428.80;104887;1272;62685;-26
2022/05/07 00:25:02;;;;;;;6.30;2.80;;;;;;;11.19;41.46;99433.84;104939;1271;75628;-25
2022/05/07 00:27:32;;;;;;;8.40;2.20;;;;;;;11.16;41.61;99428.98;104776;1274;75745;-25
2022/05/07 00:30:00;;;;;;;4.50;1.80;;;;;;;11.15;41.51;99428.20;104755;1274;72775;-25
2022/05/07 00:32:30;;;;;;;9.20;2.50;;;;;;;11.14;41.66;99426.55;104850;1274;61057;-25
2022/05/07 00:34:58;;;;;;;7.40;2.20;;;;;;;11.13;42.05;99424.38;104601;1274;62454;-25
2022/05/07 00:37:27;;;;;;;6.40;2.20;;;;;;;11.08;42.36;99423.86;104683;1274;75472;-25
2022/05/07 00:39:55;;;;;;;5.50;2.20;;;;;;;11.05;42.26;99420.96;104633;1274;75967;-25
2022/05/07 00:42:24;;;;;;;4.10;2.30;;;;;;;11.04;42.53;99419.40;104674;1274;74472;-26
2022/05/07 00:44:53;;;;;;;6.30;2.20;;;;;;;11.01;42.32;99419.38;104787;1274;62027;-25
2022/05/07 00:47:25;;;;;;;4.70;2.20;;;;;;;11.02;42.63;99412.91;104560;1274;498678;-26
2022/05/07 00:51:33;;;;;;;3.80;1.80;;;;;;;10.98;43.20;99415.61;104682;1274;74025;-25
2022/05/07 00:52:44;;;;;;;7.20;2.10;;;;;;;10.94;42.70;99418.55;104750;1274;75998;-25
2022/05/07 00:55:13;;;;;;;8.10;2.20;;;;;;;10.93;43.08;99416.36;104469;1274;73254;-25
2022/05/07 00:57:43;;;;;;;3.70;2.10;;;;;;;10.91;43.05;99411.31;104477;1274;61151;-26
2022/05/07 01:00:12;;;;;;;3.00;1.80;;;;;;;10.89;43.25;99414.58;104692;1274;61110;-25
2022/05/07 01:02:41;;;;;;;5.10;2.20;;;;;;;10.87;43.08;99414.23;104829;1274;75550;-25
2022/05/07 01:05:10;;;;;;;4.70;2.40;;;;;;;10.86;43.31;99414.96;104773;1274;76091;-25
2022/05/07 01:07:39;;;;;;;6.40;2.90;;;;;;;10.84;43.56;99410.79;104656;1274;73385;-25
2022/05/07 01:10:09;;;;;;;4.80;2.40;;;;;;;10.78;43.88;99410.56;104631;1274;61447;-25
2022/05/07 01:12:39;;;;;;;6.30;2.10;;;;;;;10.73;44.51;99409.20;104662;1274;62033;-26
2022/05/07 01:15:09;;;;;;;8.00;2.40;;;;;;;10.67;44.78;99406.66;104679;1274;76394;-25
2022/05/07 01:17:38;;;;;;;5.40;2.10;;;;;;;10.64;44.71;99405.40;104624;1274;75755;-25
2022/05/07 01:20:12;;;;;;;9.10;2.20;;;;;;;10.62;44.92;99406.20;104693;1274;74406;-25
2022/05/07 01:22:42;;;;;;;5.10;2.10;;;;;;;10.60;44.44;99402.59;104632;1274;61821;-27
2022/05/07 01:25:12;;;;;;;5.20;2.20;;;;;;;10.59;44.87;99404.06;104645;1274;62034;-26
2022/05/07 01:27:41;;;;;;;8.30;2.60;;;;;;;10.58;44.51;99401.52;104738;1273;75303;-25
2022/05/07 01:30:11;;;;;;;9.40;2.70;;;;;;;10.58;44.35;99399.25;104810;1274;75929;-25
2022/05/07 01:32:41;;;;;;;8.70;3.00;;;;;;;10.57;44.55;99398.42;104660;1274;74530;-26
2022/05/07 01:35:09;;;;;;;9.30;2.90;;;;;;;10.54;44.65;99397.56;104605;1272;62250;-25
2022/05/07 01:37:39;;;;;;;9.40;2.40;;;;;;;10.52;44.71;99397.89;104693;1274;61121;-25
2022/05/07 01:40:08;;;;;;;8.30;2.50;;;;;;;10.50;44.76;99396.34;104782;1274;75407;-25
2022/05/07 01:42:39;;;;;;;7.30;1.90;;;;;;;10.50;44.82;99396.36;104657;1271;75816;-25
2022/05/07 01:45:09;;;;;;;16.40;2.50;;;;;;;10.47;45.38;99396.73;104674;1274;74363;-25
2022/05/07 01:50:26;;;;;;;9.90;2.20;;;;;;;10.39;46.11;99392.40;104795;1273;61240;-25
2022/05/07 01:52:54;;;;;;;8.10;2.10;;;;;;;10.36;46.28;99394.38;104945;1272;75561;-25
2022/05/07 01:55:23;;;;;;;6.70;2.00;;;;;;;10.35;45.29;99392.60;104809;1271;75968;-25
2022/05/07 01:57:52;;;;;;;12.70;2.40;;;;;;;10.35;45.56;99387.04;104784;1274;74400;-25
2022/05/07 02:00:21;;;;;;;5.60;2.40;;;;;;;10.35;45.71;99384.44;104794;1271;61114;-25
2022/05/07 02:02:49;;;;;;;5.60;2.20;;;;;;;10.33;45.94;99383.20;104818;1271;61928;-25
2022/05/07 02:05:23;;;;;;;7.80;2.50;;;;;;;10.28;46.39;99377.32;104811;1274;73968;-25
2022/05/07 02:07:53;;;;;;;7.50;2.00;;;;;;;10.25;46.22;99379.91;104985;1271;76326;-25
2022/05/07 02:10:22;;;;;;;8.00;2.40;;;;;;;10.23;46.68;99377.64;105003;1274;74508;-26
2022/05/07 02:12:50;;;;;;;9.40;2.50;;;;;;;10.21;46.03;99378.67;104955;1271;61169;-27
2022/05/07 02:15:20;;;;;;;8.20;2.40;;;;;;;10.21;46.51;99376.77;104853;1271;61154;-27
2022/05/07 02:17:51;;;;;;;10.80;2.60;;;;;;;10.19;46.30;99374.83;104824;1271;75488;-27
2022/05/07 02:20:20;;;;;;;3.50;2.30;;;;;;;10.16;46.99;99372.46;104840;1271;76029;-28
2022/05/07 02:22:52;;;;;;;5.30;2.80;;;;;;;10.11;46.91;99378.21;104824;1271;74276;-30
2022/05/07 02:25:22;;;;;;;6.50;2.40;;;;;;;10.08;46.68;99373.04;104697;1274;62253;-27
2022/05/07 02:27:53;;;;;;;7.80;2.30;;;;;;;10.05;47.12;99375.52;104755;1272;61195;-25
2022/05/07 02:30:22;;;;;;;3.50;2.10;;;;;;;10.00;47.33;99377.81;104984;1274;75310;-25
2022/05/07 02:32:51;;;;;;;5.90;2.10;;;;;;;9.94;47.89;99378.41;105093;1274;76009;-28
2022/05/07 02:35:21;;;;;;;7.70;2.10;;;;;;;9.89;48.04;99375.86;104967;1271;74302;-28
2022/05/07 02:37:51;;;;;;;4.70;2.20;;;;;;;9.83;48.15;99375.36;104922;1274;61499;-29
2022/05/07 02:40:20;;;;;;;4.50;2.10;;;;;;;9.81;47.73;99379.54;104898;1271;62392;-29
2022/05/07 02:42:49;;;;;;;4.20;2.00;;;;;;;9.79;48.09;99378.42;104762;1271;74516;-28
2022/05/07 02:45:18;;;;;;;4.10;2.50;;;;;;;9.78;48.14;99379.07;104868;1271;75193;-26
2022/05/07 02:47:50;;;;;;;7.80;2.40;;;;;;;9.75;48.61;99379.10;104853;1271;73534;-27
2022/05/07 02:50:20;;;;;;;9.50;2.20;;;;;;;9.71;48.83;99377.49;104948;1271;61811;-27
2022/05/07 02:52:49;;;;;;;6.40;2.20;;;;;;;9.66;48.71;99377.63;104807;1274;61051;-27
2022/05/07 02:55:18;;;;;;;6.00;2.40;;;;;;;9.67;48.55;99378.80;104797;1274;75589;-27
2022/05/07 02:57:51;;;;;;;6.50;2.50;;;;;;;9.71;47.75;99380.13;104758;1274;75883;-27
2022/05/07 03:00:20;;;;;;;4.30;1.80;;;;;;;9.75;47.38;99384.31;104950;1271;73623;-27
2022/05/07 03:02:49;;;;;;;3.10;1.80;;;;;;;9.79;47.06;99385.91;104827;1271;62145;-26
2022/05/07 03:05:17;;;;;;;4.00;2.10;;;;;;;9.82;47.09;99388.81;104736;1274;61978;-26
2022/05/07 03:07:49;;;;;;;4.50;2.20;;;;;;;9.85;46.78;99392.80;104825;1271;75527;-26
2022/05/07 03:10:20;;;;;;;4.80;1.90;;;;;;;9.88;46.64;99393.92;104857;1271;75967;-26
2022/05/07 03:12:49;;;;;;;4.70;2.50;;;;;;;9.91;46.75;99397.67;104731;1274;74488;-26
2022/05/07 03:15:18;;;;;;;3.20;2.30;;;;;;;9.94;46.52;99402.50;104738;1272;61979;-26
2022/05/07 03:17:46;;;;;;;5.20;2.80;;;;;;;9.97;46.63;99407.13;104736;1271;60996;-26
2022/05/07 03:20:17;;;;;;;3.50;2.10;;;;;;;9.99;49.98;99406.52;104787;1274;75354;-26
2022/05/07 03:22:47;;;;;;;5.80;2.20;;;;;;;9.93;51.33;99413.53;104751;1271;75166;-26
2022/05/07 03:25:15;;;;;;;4.20;1.90;;;;;;;9.87;51.23;99411.19;104792;1271;74407;-26
2022/05/07 03:27:44;;;;;;;6.60;2.60;;;;;;;9.87;52.46;99417.77;104785;1274;61162;-27
2022/05/07 03:30:16;;;;;;;4.10;2.20;;;;;;;9.82;51.80;99419.52;104862;1271;61862;-26
2022/05/07 03:32:57;;;;;;;9.70;2.70;;;;;;;9.78;51.84;99422.58;104685;1275;75525;-26
2022/05/07 03:35:26;;;;;;;4.80;2.00;;;;;;;9.72;51.36;99422.13;104802;1274;76054;-26
2022/05/07 03:37:55;;;;;;;6.20;2.60;;;;;;;9.65;51.18;99424.53;104774;1271;74224;-26
2022/05/07 03:40:24;;;;;;;6.00;2.70;;;;;;;9.64;52.85;99426.00;104736;1274;62115;-26
2022/05/07 03:42:54;;;;;;;11.10;2.40;;;;;;;9.66;50.68;99426.73;104715;1271;61970;-26
2022/05/07 03:45:24;;;;;;;5.60;2.30;;;;;;;9.72;48.64;99426.48;104861;1271;75495;-26
2022/05/07 03:47:53;;;;;;;8.70;2.40;;;;;;;9.79;48.13;99429.77;104836;1272;75894;-26
2022/05/07 03:50:22;;;;;;;5.40;2.20;;;;;;;9.86;48.45;99431.23;104911;1271;73413;-26
2022/05/07 03:55:41;;;;;;;5.90;2.60;;;;;;;10.00;50.28;99429.52;104937;1274;62696;-26
2022/05/07 03:58:15;;;;;;;4.00;2.40;;;;;;;10.05;51.36;99431.41;105105;1273;75263;-26
2022/05/07 04:00:43;;;;;;;7.20;1.90;;;;;;;10.09;51.08;99430.73;104817;1274;75036;-26
2022/05/07 04:03:12;;;;;;;6.30;2.40;;;;;;;10.14;48.60;99430.04;104889;1272;73157;-26
2022/05/07 04:05:51;;;;;;;6.90;2.60;;;;;;;10.19;48.85;99429.81;104701;1274;60994;-26
2022/05/07 04:08:19;;;;;;;4.90;2.70;;;;;;;10.23;48.81;99427.81;104825;1271;61825;-26
2022/05/07 04:10:49;;;;;;;10.30;2.60;;;;;;;10.27;49.02;99431.68;104799;1271;74275;-26
2022/05/07 04:13:21;;;;;;;4.00;2.60;;;;;;;10.33;49.26;99429.38;104617;1274;74830;-26
2022/05/07 04:15:55;;;;;;;5.60;3.00;;;;;;;10.37;49.91;99432.16;104857;1271;73572;-25
2022/05/07 04:18:25;;;;;;;7.10;2.50;;;;;;;10.43;50.84;99435.24;104776;1274;61187;-25
2022/05/07 04:20:56;;;;;;;9.00;2.80;;;;;;;10.50;49.63;99438.02;104800;1271;61127;-26
2022/05/07 04:23:25;;;;;;;8.10;2.50;;;;;;;10.56;49.81;99436.70;104822;1274;75606;-25
2022/05/07 04:25:54;;;;;;;5.30;2.80;;;;;;;10.66;49.17;99433.55;104823;1272;75731;-25
2022/05/07 04:28:24;;;;;;;6.00;2.40;;;;;;;10.77;49.34;99437.17;104849;1271;73418;-26
2022/05/07 04:30:53;;;;;;;7.00;2.40;;;;;;;10.88;48.12;99441.73;104745;1274;61815;-26
2022/05/07 04:33:26;;;;;;;5.40;2.80;;;;;;;10.95;47.37;99440.69;104748;1271;62358;-27
2022/05/07 04:35:57;;;;;;;6.70;3.20;;;;;;;11.02;46.56;99439.31;104814;1271;75721;-27
2022/05/07 04:38:26;;;;;;;6.70;2.90;;;;;;;11.11;46.53;99440.00;104961;1271;75842;-27
2022/05/07 04:40:55;;;;;;;9.10;2.80;;;;;;;11.17;46.51;99440.57;104735;1274;74356;-27
2022/05/07 04:43:27;;;;;;;6.90;3.10;;;;;;;11.24;47.20;99439.16;104738;1271;61113;-27
2022/05/07 04:45:56;;;;;;;6.60;2.90;;;;;;;11.29;47.54;99447.70;104719;1271;61769;-27
2022/05/07 04:48:27;;;;;;;6.20;3.20;;;;;;;11.30;46.74;99448.56;104814;1271;75505;-27
2022/05/07 04:50:55;;;;;;;6.70;2.90;;;;;;;11.32;47.17;99451.22;104805;1271;74708;-27
2022/05/07 04:53:35;;;;;;;6.70;2.60;;;;;;;11.34;46.94;99455.09;104773;1271;74303;-27
2022/05/07 04:56:10;;;;;;;4.20;2.40;;;;;;;11.36;46.95;99456.48;104734;1272;62195;-27
2022/05/07 04:58:44;;;;;;;7.00;2.60;;;;;;;11.37;47.53;99455.89;104775;1271;61006;-27
2022/05/07 05:01:13;;;;;;;5.90;2.50;;;;;;;11.39;47.43;99459.56;104958;1271;75573;-27
2022/05/07 05:03:46;;;;;;;7.50;3.00;;;;;;;11.40;47.54;99458.08;104779;1271;75736;-26
2022/05/07 05:06:22;;;;;;;10.90;7.10;;;;;;;11.42;47.84;99457.38;104766;1271;74477;-27
2022/05/07 05:08:58;;;;;;;12.30;6.10;;;;;;;11.49;47.87;99462.15;104796;1271;61028;-27
2022/05/07 05:11:30;;;;;;;11.30;6.30;;;;;;;11.55;47.90;99467.05;104623;1274;61078;-27
2022/05/07 05:13:58;;;;;;;7.90;5.20;;;;;;;11.64;47.22;99466.50;104844;1271;74326;-28
2022/05/07 05:16:28;;;;;;;6.60;4.50;;;;;;;11.72;47.22;99471.90;104825;1271;74996;-26
2022/05/07 05:19:04;;;;;;;4.50;3.40;;;;;;;11.81;47.74;99470.59;104645;1272;74385;-27
2022/05/07 05:21:32;;;;;;;6.80;3.90;;;;;;;11.89;47.15;99470.44;104626;1274;61148;-27
2022/05/07 05:24:08;;;;;;;7.40;2.80;;;;;;;11.97;46.89;99469.27;104761;1272;62059;-26
2022/05/07 05:26:38;;;;;;;5.50;3.40;;;;;;;12.08;47.14;99472.26;104819;1271;74551;-27
2022/05/07 05:29:11;;;;;;;7.20;2.90;;;;;;;12.17;47.84;99468.41;104801;1269;75812;-27
2022/05/07 05:31:39;;;;;;;7.80;2.60;;;;;;;12.27;47.25;99460.09;104747;1271;74368;-27
2022/05/07 05:34:20;;;;;;;5.20;3.10;;;;;;;12.37;47.64;99457.38;104732;1274;61065;-27
2022/05/07 05:36:51;;;;;;;4.80;3.10;;;;;;;12.48;47.48;99456.11;104819;1271;61070;-29
2022/05/07 05:39:21;;;;;;;6.80;3.50;;;;;;;12.61;47.66;99458.03;104791;1271;75834;-27
2022/05/07 05:41:50;;;;;;;11.10;3.30;;;;;;;12.75;46.59;99460.34;104912;1272;76189;-26
2022/05/07 05:44:20;;;;;;;5.60;3.20;;;;;;;12.88;45.97;99460.33;104777;1271;74357;-27
2022/05/07 05:46:49;;;;;;;13.80;3.10;;;;;;;13.02;45.84;99463.89;104768;1274;62055;-27
2022/05/07 05:49:17;;;;;;;5.80;3.10;;;;;;;13.16;44.90;99466.33;104932;1274;61229;-25
2022/05/07 05:51:47;;;;;;;8.10;3.50;;;;;;;13.25;45.42;99470.04;104731;1271;75629;-25
2022/05/07 05:54:15;;;;;;;7.00;3.20;;;;;;;13.32;44.93;99466.65;104794;1271;75858;-26
2022/05/07 05:56:45;;;;;;;8.70;3.30;;;;;;;13.33;44.18;99470.08;104774;1273;74337;-25
2022/05/07 05:59:15;;;;;;;5.30;2.90;;;;;;;13.23;43.78;99474.94;104927;1271;61932;-27
2022/05/07 06:01:49;;;;;;;7.80;3.30;;;;;;;13.13;43.42;99478.09;104778;1271;61170;-27
2022/05/07 06:04:40;;;;;;;9.30;3.40;;;;;;;12.97;44.52;99477.82;104780;1271;75726;-27
2022/05/07 06:07:17;;;;;;;8.10;3.30;;;;;;;12.91;45.51;99478.33;104891;1271;76065;-26
2022/05/07 06:09:46;;;;;;;8.10;3.60;;;;;;;12.86;45.53;99480.86;105061;1271;74315;-26
2022/05/07 06:12:19;;;;;;;;;;;;;;;12.80;45.79;99479.66;104907;1271;61443;-27
2022/05/07 06:14:52;;;;;;;7.60;3.20;;;;;;;12.73;45.97;99478.30;104797;1274;61109;-26
2022/05/07 06:17:21;;;;;;;8.50;3.40;;;;;;;12.70;46.30;99477.66;104649;1274;75830;-26
2022/05/07 06:19:52;;;;;;;6.00;3.00;;;;;;;12.67;46.83;99486.61;104823;1271;76369;-26
2022/05/07 06:22:21;;;;;;;7.90;3.60;;;;;;;12.59;46.32;99494.92;104869;1271;74601;-26
2022/05/07 06:28:04;;;;;;;7.80;3.50;;;;;;;12.57;47.70;99498.08;104908;1273;61128;-26
2022/05/07 06:30:37;;;;;;;6.80;3.00;;;;;;;12.58;49.22;99497.63;104697;1274;75664;-26
2022/05/07 06:33:09;;;;;;;7.70;3.60;;;;;;;12.61;49.66;99504.30;104758;1271;76087;-26
2022/05/07 06:35:42;;;;;;;18.20;3.70;;;;;;;12.68;50.66;99505.33;104750;1272;74853;-25
2022/05/07 06:38:14;;;;;;;11.40;3.20;;;;;;;12.77;51.40;99511.22;105026;1271;61161;-26
2022/05/07 06:40:47;;;;;;;9.80;3.60;;;;;;;12.86;49.91;99505.92;105133;1271;62438;-26
2022/05/07 06:43:16;;;;;;;7.70;3.50;;;;;;;12.93;50.55;99507.05;105146;1271;75521;-27
2022/05/07 06:46:02;;;;;;;12.20;3.30;;;;;;;13.04;50.11;99507.58;105098;1274;75990;-27
2022/05/07 06:48:34;;;;;;;8.40;3.70;;;;;;;13.09;50.00;99500.50;104990;1274;74380;-24
2022/05/07 06:51:08;;;;;;;7.70;4.10;;;;;;;13.13;49.31;99499.16;105134;1272;61026;-27
2022/05/07 06:53:36;;;;;;;13.30;4.80;;;;;;;13.18;50.17;99501.70;105007;1274;62055;-27
2022/05/07 06:56:06;;;;;;;5.90;3.70;;;;;;;13.17;48.08;99511.38;104633;1274;75524;-27
2022/05/07 06:58:37;;;;;;;13.20;3.90;;;;;;;13.12;47.45;99514.41;104810;1271;76041;-27
2022/05/07 07:01:05;;;;;;;10.30;3.90;;;;;;;13.11;47.30;99521.14;105072;1272;74505;-27
2022/05/07 07:03:36;;;;;;;17.70;4.30;;;;;;;12.99;48.07;99519.32;105135;1271;61748;-26
2022/05/07 07:06:06;;;;;;;12.10;3.70;;;;;;;12.97;48.45;99517.62;105100;1271;61770;-28
2022/05/07 07:08:34;;;;;;;11.50;4.30;;;;;;;12.90;50.16;99526.14;105165;1272;75514;-26
2022/05/07 07:11:05;;;;;;;9.40;3.90;;;;;;;12.87;51.12;99529.56;105145;1271;76014;-26
2022/05/07 07:13:35;;;;;;;8.70;4.10;;;;;;;12.88;50.89;99526.34;105124;1271;74202;-27
2022/05/07 07:50:23;;;;;;;7.70;3.80;;;;;;;12.01;60.43;99528.80;105130;1274;73636;-24
2022/05/07 07:52:56;;;;;;;8.50;3.90;;;;;;;12.03;62.04;99528.50;104779;1274;75125;-24
2022/05/07 07:55:25;;;;;;;24.10;6.20;;;;;;;12.02;61.20;99515.33;104680;1274;74249;-24
2022/05/07 07:57:56;;;;;;;8.60;5.20;;;;;;;12.05;59.83;99509.40;104675;1272;62166;-25
2022/05/07 08:00:26;;;;;;;13.60;5.50;;;;;;;12.11;55.88;99505.25;104891;1274;62037;-25
2022/05/07 08:03:00;;;;;;;11.50;4.70;;;;;;;12.22;56.45;99503.16;104910;1271;75593;-25
2022/05/07 08:05:30;;;;;;;;;;;;;;;12.30;55.92;99502.12;104652;1275;76026;-25
2022/05/07 08:13:45;;;;;;;9.30;5.00;;;;;;;12.61;58.20;99552.77;104972;1274;61058;-25
2022/05/07 08:16:14;;;;;;;14.00;5.30;;;;;;;12.65;59.50;99557.13;104864;1272;75529;-25
2022/05/07 08:18:43;;;;;;;7.90;4.90;;;;;;;12.73;56.20;99549.15;104614;1271;74985;-25
2022/05/07 08:21:12;;;;;;;9.00;4.50;;;;;;;12.79;55.95;99557.20;104752;1274;73424;-24
2022/05/07 08:23:41;;;;;;;8.40;4.60;;;;;;;12.79;53.87;99553.20;104681;1274;62385;-25
2022/05/07 08:26:10;;;;;;;8.20;4.30;;;;;;;12.82;54.74;99554.02;104816;1271;61152;-26
2022/05/07 08:28:39;;;;;;;10.80;4.30;;;;;;;12.83;54.27;99559.63;104785;1274;74492;-25
2022/05/07 08:31:08;;;;;;;7.30;4.20;;;;;;;12.83;53.17;99560.40;104777;1274;76000;-25
2022/05/07 08:33:41;;;;;;;9.20;4.60;;;;;;;12.74;55.26;99567.09;105084;1271;74320;-25
2022/05/07 08:36:10;;;;;;;8.00;4.60;;;;;;;12.60;54.54;99562.20;104873;1274;62483;-27
2022/05/07 08:38:42;;;;;;;11.80;4.60;;;;;;;12.50;55.11;99564.07;104790;1275;62090;-27
2022/05/07 08:41:11;;;;;;;11.50;4.50;;;;;;;12.35;56.11;99560.73;104623;1274;75561;-26
2022/05/07 08:43:42;;;;;;;7.60;4.50;;;;;;;12.26;56.64;99553.51;104775;1274;76001;-27
2022/05/07 08:46:14;;;;;;;7.10;4.60;;;;;;;12.16;57.96;99540.52;104654;1274;73386;-27
2022/05/07 08:48:46;;;;;;;15.80;6.20;;;;;;;12.02;59.63;99536.06;104670;1271;61130;-27
2022/05/07 08:51:16;;;;;;;10.50;4.70;;;;;;;11.88;61.32;99531.61;104627;1274;61055;-27
2022/05/07 08:53:49;;;;;;;12.10;4.70;;;;;;;11.83;59.63;99526.24;104936;1271;74611;-27
2022/05/07 08:56:17;;;;;;;10.40;4.40;;;;;;;11.79;59.77;99524.44;104667;1272;76045;-27
2022/05/07 08:58:50;;;;;;;7.00;4.70;;;;;;;11.78;60.01;99526.96;104753;1274;76164;-27
2022/05/07 09:01:20;;;;;;;9.60;4.90;;;;;;;11.80;61.79;99528.05;104650;1272;61154;-27
2022/05/07 09:03:49;;;;;;;7.90;4.40;;;;;;;11.81;61.75;99528.50;104804;1274;61709;-27
2022/05/07 09:06:26;;;;;;;10.60;4.00;;;;;;;11.88;62.55;99535.58;104663;1274;75539;-27
2022/05/07 09:08:55;;;;;;;12.50;3.90;;;;;;;11.93;63.61;99543.70;104701;1274;76023;-27
2022/05/07 09:11:25;;;;;;;5.70;3.80;;;;;;;11.98;62.47;99545.77;104593;1274;73404;-27
2022/05/07 09:13:59;;;;;;;6.10;3.80;;;;;;;12.03;63.31;99543.92;104857;1271;61842;-27
2022/05/07 09:16:49;;;;;;;11.40;3.70;;;;;;;12.09;62.09;99547.00;104684;1274;62128;-26
2022/05/07 09:19:28;;;;;;;6.80;3.60;;;;;;;12.22;60.24;99548.06;104666;1274;74768;-24
2022/05/07 09:22:08;;;;;;;7.50;3.90;;;;;;;12.38;61.63;99552.92;104672;1274;75959;-25
2022/05/07 09:24:38;;;;;;;6.80;3.70;;;;;;;12.51;61.96;99551.63;104675;1274;72539;-25
2022/05/07 09:27:07;;;;;;;6.40;3.40;;;;;;;12.63;61.53;99548.75;104652;1274;61820;-24
2022/05/07 09:29:37;;;;;;;11.30;3.00;;;;;;;12.77;61.46;99543.62;104821;1271;62216;-25
2022/05/07 09:32:10;;;;;;;12.90;3.70;;;;;;;12.88;61.05;99540.82;104816;1271;75475;-24
2022/05/07 09:37:39;;;;;;;8.50;3.40;;;;;;;13.12;60.97;99528.38;104843;1274;73227;-25
2022/05/07 09:40:09;;;;;;;13.50;6.50;;;;;;;13.16;60.36;99526.27;104832;1274;61119;-25
2022/05/07 09:42:39;;;;;;;8.80;5.20;;;;;;;13.22;59.35;99521.78;104724;1274;61157;-25
2022/05/07 09:45:08;;;;;;;5.70;3.30;;;;;;;13.28;58.63;99525.63;104702;1272;74175;-26
2022/05/07 09:47:37;;;;;;;5.80;3.10;;;;;;;13.37;58.28;99523.63;104680;1274;75847;-25
2022/05/07 09:50:20;;;;;;;8.30;5.30;;;;;;;13.47;59.08;99531.02;104654;1272;73467;-24
2022/05/07 09:58:27;;;;;;;6.60;3.70;;;;;;;13.60;59.33;99529.23;104738;1274;75308;-26
2022/05/07 10:01:08;;;;;;;6.00;3.20;;;;;;;13.59;59.53;99533.63;104745;1272;76075;-24
2022/05/07 10:04:04;;;;;;;10.20;3.40;;;;;;;13.59;58.94;99532.42;104680;1271;74318;-25
2022/05/07 10:06:39;;;;;;;5.30;2.90;;;;;;;13.59;58.67;99532.11;104707;1271;61892;-24
2022/05/07 10:09:23;;;;;;;6.00;3.50;;;;;;;13.62;57.93;99526.45;104790;1271;62039;-24
2022/05/07 10:11:56;;;;;;;4.80;3.00;;;;;;;13.66;57.76;99523.83;104667;1271;75544;-25
2022/05/07 10:14:30;;;;;;;6.50;3.00;;;;;;;13.74;58.75;99525.94;104648;1271;76015;-24
2022/05/07 10:17:09;;;;;;;7.40;3.00;;;;;;;13.79;58.50;99521.31;104646;1271;73123;-24
2022/05/07 10:19:44;;;;;;;9.30;3.40;;;;;;;13.84;58.91;99518.36;104633;1274;62299;-25
2022/05/07 10:22:24;;;;;;;8.70;3.30;;;;;;;13.87;56.74;99517.26;104732;1274;61864;-25
2022/05/07 10:25:05;;;;;;;6.50;3.10;;;;;;;13.95;55.58;99513.08;104863;1274;74537;-25
2022/05/07 10:27:38;;;;;;;5.40;2.80;;;;;;;14.06;55.16;99513.31;105003;1271;76403;-25
2022/05/07 10:30:14;;;;;;;5.30;3.10;;;;;;;14.15;55.18;99510.63;104931;1271;74642;-33
2022/05/07 10:33:03;;;;;;;4.30;2.80;;;;;;;14.24;54.22;99507.77;104650;1274;61117;-27
2022/05/07 10:35:44;;;;;;;5.50;2.60;;;;;;;14.37;51.94;99507.83;104681;1274;61125;-25
2022/05/07 10:38:45;;;;;;;5.90;3.20;;;;;;;14.51;53.06;99506.45;104787;1271;75224;-26
2022/05/07 10:41:17;;;;;;;6.50;3.40;;;;;;;14.57;53.13;99508.06;104660;1274;76197;-25
2022/05/07 10:43:47;;;;;;;10.70;3.30;;;;;;;14.55;52.16;99514.25;104929;1274;72530;-25
2022/05/07 10:46:19;;;;;;;7.20;3.30;;;;;;;14.54;51.75;99508.27;104640;1272;62056;-26
2022/05/07 10:48:57;;;;;;;6.20;3.60;;;;;;;14.55;52.24;99507.25;104588;1274;62049;-25
2022/05/07 10:51:28;;;;;;;8.10;3.00;;;;;;;14.55;51.30;99508.66;104642;1274;75589;-25
2022/05/07 10:54:03;;;;;;;4.20;2.50;;;;;;;14.56;49.38;99501.43;104723;1274;74825;-25
2022/05/07 10:56:33;;;;;;;6.40;3.00;;;;;;;14.61;48.65;99498.53;104613;1274;73224;-24
2022/05/07 10:59:02;;;;;;;6.60;3.10;;;;;;;14.68;49.61;99497.63;104595;1274;61129;-26
2022/05/07 11:01:31;;;;;;;5.20;2.90;;;;;;;14.79;50.96;99502.13;104927;1274;61295;-25
2022/05/07 11:04:08;;;;;;;4.30;2.90;;;;;;;14.94;49.96;99499.74;104644;1274;75557;-27
2022/05/07 11:06:40;;;;;;;9.30;3.20;;;;;;;15.08;48.59;99494.42;104624;1274;76449;-27
2022/05/07 11:09:19;;;;;;;7.50;2.50;;;;;;;15.42;49.11;99486.85;104742;1274;74386;-24
2022/05/07 11:11:56;;;;;;;6.30;2.90;;;;;;;15.72;49.68;99481.23;104378;1273;61153;-25
2022/05/07 11:14:26;;;;;;;6.00;3.10;;;;;;;15.94;50.11;99475.33;104528;1274;61163;-27
2022/05/07 11:16:55;;;;;;;7.60;3.90;;;;;;;15.97;49.69;99471.38;104722;1274;74604;-27
2022/05/07 11:19:32;;;;;;;5.80;3.20;;;;;;;15.92;49.25;99464.47;104550;1274;74740;-27
2022/05/07 11:22:03;;;;;;;6.10;3.10;;;;;;;15.73;47.93;99459.41;104551;1274;73144;-25
2022/05/07 11:24:32;;;;;;;8.30;3.30;;;;;;;15.66;48.77;99452.48;104619;1274;61927;-26
2022/05/07 11:27:06;;;;;;;5.90;3.00;;;;;;;15.74;49.85;99442.20;104756;1274;61989;-26
2022/05/07 11:29:34;;;;;;;;;;;;;;;15.89;48.16;99431.13;104608;1274;74516;-27
2022/05/07 11:32:11;;;;;;;5.70;3.30;;;;;;;16.08;46.78;99423.70;104624;1274;76057;-26
2022/05/07 11:34:41;;;;;;;9.40;3.70;;;;;;;16.38;46.18;99425.51;104731;1274;74479;-26
2022/05/07 11:37:22;;;;;;;6.10;2.80;;;;;;;16.68;45.84;99425.14;104372;1273;61196;-26
2022/05/07 11:39:53;;;;;;;8.00;3.60;;;;;;;16.92;44.53;99418.84;104538;1274;61164;-27
2022/05/07 11:42:26;;;;;;;11.50;3.40;;;;;;;17.22;46.00;99420.33;104641;1274;75442;-26
2022/05/07 11:45:31;;;;;;;5.20;2.10;;;;;;;17.74;44.29;99410.80;104645;1274;76290;-26
2022/05/07 11:48:07;;;;;;;6.70;2.70;;;;;;;18.16;42.48;99406.33;104702;1274;73342;-27
2022/05/07 11:50:41;;;;;;;7.70;3.30;;;;;;;18.62;43.09;99407.71;104638;1274;60975;-26
2022/05/07 11:53:14;;;;;;;5.00;2.50;;;;;;;18.84;41.55;99400.59;104564;1274;61065;-26
2022/05/07 11:55:45;;;;;;;19.00;2.20;;;;;;;18.99;41.60;99396.83;104626;1274;75058;-27
2022/05/07 11:58:20;;;;;;;2.90;2.10;;;;;;;19.01;40.68;99396.06;104698;1272;76042;-27
2022/05/07 12:00:56;;;;;;;4.50;2.10;;;;;;;18.97;40.63;99384.94;104665;1272;74204;-27
2022/05/07 12:03:26;;;;;;;7.70;2.70;;;;;;;19.09;40.04;99386.23;104649;1274;62062;-27
2022/05/07 12:05:57;;;;;;;8.30;2.90;;;;;;;19.30;40.17;99379.65;104602;1274;61688;-27
2022/05/07 12:08:33;;;;;;;3.70;2.70;;;;;;;19.48;38.14;99375.02;104645;1274;75371;-27
2022/05/07 12:11:04;;;;;;;9.30;3.50;;;;;;;19.53;37.82;99374.96;104642;1272;74113;-26
2022/05/07 12:13:35;;;;;;;6.60;2.80;;;;;;;19.67;39.60;99375.81;104696;1272;74938;-27
2022/05/07 12:18:52;;;;;;;10.00;2.80;;;;;;;19.27;36.53;99367.73;104885;1272;61173;-26
2022/05/07 12:29:49;;;;;;;5.40;2.50;;;;;;;19.27;35.55;99368.23;104735;1272;61176;-25
2022/05/07 12:32:20;;;;;;;3.80;1.80;;;;;;;19.33;36.55;99369.71;104741;1274;62016;-26
2022/05/07 12:34:49;;;;;;;5.80;2.70;;;;;;;19.32;35.51;99369.73;104632;1274;75579;-26
2022/05/07 12:37:19;;;;;;;4.40;2.40;;;;;;;19.22;35.56;99365.79;104794;1272;74525;-25
2022/05/07 12:39:48;;;;;;;10.20;2.70;;;;;;;19.12;34.85;99362.86;104784;1271;73772;-25
2022/05/07 12:42:17;;;;;;;6.70;3.00;;;;;;;19.08;34.93;99369.52;104681;1273;61206;-25
2022/05/07 12:44:46;;;;;;;10.60;2.90;;;;;;;19.02;34.25;99361.33;104864;1272;61167;-25
2022/05/07 12:47:18;;;;;;;6.20;3.40;;;;;;;19.02;34.11;99358.55;104812;1274;75671;-25
2022/05/07 12:49:46;;;;;;;4.70;2.80;;;;;;;19.08;34.69;99358.27;104512;1274;293255;-24
2022/05/07 12:52:16;;;;;;;7.80;2.60;;;;;;;19.10;35.36;99355.19;104824;1272;74445;-24
2022/05/07 12:54:45;;;;;;;5.10;3.20;;;;;;;19.19;35.23;99354.67;104830;1274;62074;-25
2022/05/07 12:57:14;;;;;;;4.80;2.80;;;;;;;19.53;34.77;99359.52;104787;1274;62007;-26